Terminal Aerodrome Forecast
Issued by NWS

Home | Current Version | Previous Version | Text Only | Print | Product List | Glossary Off
Versions: 1 2 3 4 5 6 7 8 9 10 11 12 13 14 15 16 17 18 19 20 21 22 23 24 25 26 27 28 29 30 31 32 33 34

000
FTUS43 KPAH 161120
TAFOWB
TAF
KOWB 161120Z 1612/1712 33010KT P6SM SCT090
     FM161800 31010KT P6SM BKN015
      TEMPO 1620/1624 -SN
     FM170300 31006KT P6SM BKN025
     FM171100 30003KT P6SM SCT025=

USA.gov is the U.S. government's official web portal to all federal, state and local government web resources and services.